Time;durP1;ratioP1;P1;durP2;ratioP2;P2;SDS_P1;SDS_P2;PMS_P1;PMS_P2;Temp;Humidity;BMP_temperature;BMP_pressure;BME280_temperature;BME280_humidity;BME280_pressure;Samples;Min_cycle;Max_cycle;Signal;HPM_P1;HPM_P2
2020/12/10 00:00:43;;;;;;;25.50;14.60;;;;;;;-1.99;84.79;94754.34;5113005;28;20531;-76
2020/12/10 00:03:08;;;;;;;23.23;14.70;;;;;;;-1.96;84.42;94755.88;5098931;28;20211;-76
2020/12/10 00:05:33;;;;;;;22.17;14.03;;;;;;;-1.96;84.20;94751.63;5095669;28;20189;-76
2020/12/10 00:07:58;;;;;;;21.70;14.07;;;;;;;-1.95;84.31;94749.91;5095590;28;20175;-76
2020/12/10 00:10:24;;;;;;;23.80;14.17;;;;;;;-1.94;84.28;94751.53;5113997;28;20186;-76
2020/12/10 00:12:49;;;;;;;21.53;13.40;;;;;;;-1.94;84.51;94746.44;5112111;28;20205;-76
2020/12/10 00:15:14;;;;;;;21.70;14.40;;;;;;;-1.97;84.25;94744.09;5109705;28;20191;-76
2020/12/10 00:17:40;;;;;;;23.37;14.33;;;;;;;-1.94;83.92;94743.88;5095019;28;20229;-76
2020/12/10 00:20:07;;;;;;;20.97;13.67;;;;;;;-1.95;84.22;94735.44;5095453;28;20181;-76
2020/12/10 00:22:33;;;;;;;21.73;13.30;;;;;;;-1.97;84.38;94739.81;5112574;28;20182;-76
2020/12/10 00:24:59;;;;;;;21.57;14.17;;;;;;;-1.93;84.45;94737.91;5083352;28;20529;-76
2020/12/10 00:27:25;;;;;;;22.93;13.60;;;;;;;-1.95;84.58;94737.16;5095170;28;20194;-76
2020/12/10 00:29:51;;;;;;;24.27;14.40;;;;;;;-1.94;84.49;94732.00;5113496;28;20197;-76
2020/12/10 00:32:17;;;;;;;22.70;14.43;;;;;;;-1.95;84.29;94734.63;5112642;28;20266;-76
2020/12/10 00:34:43;;;;;;;23.17;14.50;;;;;;;-1.96;84.25;94728.72;5106568;28;20282;-76
2020/12/10 00:37:09;;;;;;;21.20;13.43;;;;;;;-1.95;84.66;94725.25;5094997;28;20674;-76
2020/12/10 00:39:35;;;;;;;19.97;12.63;;;;;;;-1.95;84.55;94727.81;5095076;28;20205;-76
2020/12/10 00:42:01;;;;;;;22.07;13.87;;;;;;;-1.94;83.75;94726.06;5077990;28;20178;-76
2020/12/10 00:44:27;;;;;;;24.13;13.67;;;;;;;-1.95;84.11;94725.25;5078308;28;20277;-76
2020/12/10 00:46:53;;;;;;;21.77;13.47;;;;;;;-1.99;84.59;94718.75;5091475;28;20187;-76
2020/12/10 00:49:20;;;;;;;25.70;16.27;;;;;;;-1.96;84.61;94718.53;5094833;28;20531;-76
2020/12/10 00:51:46;;;;;;;22.27;14.33;;;;;;;-2.00;84.76;94705.19;5094979;28;20290;-76
2020/12/10 00:54:12;;;;;;;19.00;12.13;;;;;;;-1.99;84.27;94713.66;5095005;28;20280;-76
2020/12/10 00:56:37;;;;;;;20.40;13.50;;;;;;;-2.01;84.72;94701.03;5101132;28;20197;-76
2020/12/10 00:59:02;;;;;;;19.37;13.40;;;;;;;-1.98;84.38;94699.19;5099204;28;20211;-76
2020/12/10 01:01:28;;;;;;;23.30;14.43;;;;;;;-1.97;84.42;94704.19;5111660;28;20190;-76
2020/12/10 01:03:53;;;;;;;23.47;14.40;;;;;;;-1.98;84.43;94701.75;5111820;28;20258;-76
2020/12/10 01:06:18;;;;;;;22.83;14.10;;;;;;;-1.94;84.33;94690.44;5110552;28;20519;-76
2020/12/10 01:08:44;;;;;;;20.57;13.63;;;;;;;-1.97;84.55;94700.81;5110748;28;20529;-76
2020/12/10 01:11:09;;;;;;;23.43;14.90;;;;;;;-1.96;84.51;94702.47;5112815;28;20225;-76
2020/12/10 01:13:34;;;;;;;23.37;14.43;;;;;;;-1.95;84.36;94697.28;5094173;28;20666;-76
2020/12/10 01:16:00;;;;;;;25.03;14.20;;;;;;;-1.93;84.59;94692.13;5112738;28;20183;-76
2020/12/10 01:18:26;;;;;;;22.23;13.23;;;;;;;-1.92;84.42;94693.75;5081450;28;20238;-76
2020/12/10 01:20:51;;;;;;;18.57;12.87;;;;;;;-1.96;84.45;94697.38;5087790;28;20238;-76
2020/12/10 01:23:17;;;;;;;20.97;13.63;;;;;;;-1.97;84.06;94703.38;5094006;28;20191;-76
2020/12/10 01:25:42;;;;;;;21.40;13.37;;;;;;;-1.96;84.51;94697.38;5112727;28;20216;-76
2020/12/10 01:28:07;;;;;;;22.57;14.03;;;;;;;-1.94;84.19;94696.38;5108854;28;20188;-76
2020/12/10 01:30:32;;;;;;;24.17;14.80;;;;;;;-1.95;84.66;94701.53;5093799;28;20646;-76
2020/12/10 01:32:58;;;;;;;23.07;13.97;;;;;;;-2.01;84.48;94706.13;5111084;28;20207;-76
2020/12/10 01:35:23;;;;;;;21.57;13.83;;;;;;;-1.98;84.31;94699.19;5111051;28;20183;-76
2020/12/10 01:37:48;;;;;;;26.40;15.57;;;;;;;-2.01;84.55;94692.56;5112487;28;20715;-76
2020/12/10 01:40:14;;;;;;;22.73;14.03;;;;;;;-1.99;84.62;94690.75;5092182;28;20226;-76
2020/12/10 01:42:39;;;;;;;22.00;14.00;;;;;;;-2.01;84.53;94695.94;5094088;28;20201;-76
2020/12/10 01:45:04;;;;;;;23.40;13.67;;;;;;;-1.99;84.35;94695.84;5110785;28;20210;-76
2020/12/10 01:47:31;;;;;;;21.50;13.63;;;;;;;-1.97;84.66;94695.75;5110952;28;20213;-76
2020/12/10 01:49:56;;;;;;;18.63;11.97;;;;;;;-1.96;84.54;94677.84;5080013;28;20713;-76
2020/12/10 01:52:21;;;;;;;21.47;13.10;;;;;;;-1.86;84.07;94689.06;5092103;28;20238;-76
2020/12/10 01:54:47;;;;;;;21.63;13.73;;;;;;;-1.96;84.86;94680.38;5111942;28;20206;-76
2020/12/10 01:57:12;;;;;;;22.40;13.67;;;;;;;-1.95;84.46;94684.56;5112242;28;20202;-76
2020/12/10 01:59:37;;;;;;;25.30;15.33;;;;;;;-2.00;84.90;94682.31;5091735;28;20580;-76
2020/12/10 02:02:03;;;;;;;20.77;12.93;;;;;;;-1.94;84.72;94675.19;5110371;28;20187;-76
2020/12/10 02:04:33;;;;;;;19.50;13.27;;;;;;;-1.94;84.36;94675.19;5109623;28;20194;-76
2020/12/10 02:07:03;;;;;;;25.33;14.37;;;;;;;-1.95;84.91;94678.66;5110615;28;20509;-76
2020/12/10 02:09:28;;;;;;;23.13;13.57;;;;;;;-1.91;84.40;94677.56;5094233;28;20188;-76
2020/12/10 02:11:54;;;;;;;24.60;13.67;;;;;;;-1.93;84.91;94676.84;5075887;28;20187;-76
2020/12/10 02:14:20;;;;;;;23.70;14.10;;;;;;;-1.98;85.17;94669.47;5102124;28;20307;-76
2020/12/10 02:16:46;;;;;;;24.37;13.90;;;;;;;-1.97;85.27;94666.03;5093367;28;20657;-76
2020/12/10 02:19:11;;;;;;;24.67;14.50;;;;;;;-1.98;85.25;94669.47;5094012;28;20206;-76
2020/12/10 02:21:37;;;;;;;24.43;14.83;;;;;;;-1.97;85.74;94660.13;5090737;28;20395;-76
2020/12/10 02:24:03;;;;;;;24.63;13.87;;;;;;;-1.94;85.67;94659.91;5092937;28;20263;-76
2020/12/10 02:26:28;;;;;;;25.00;14.80;;;;;;;-1.93;85.29;94646.31;5097354;28;20184;-76
2020/12/10 02:29:01;;;;;;;23.73;14.80;;;;;;;-1.94;85.03;94652.28;5097738;28;20182;-76
2020/12/10 02:31:28;;;;;;;24.27;15.00;;;;;;;-1.90;85.29;94646.13;5097784;28;20178;-76
2020/12/10 02:34:07;;;;;;;23.97;14.27;;;;;;;-1.90;84.95;94646.94;5079775;28;20207;-76
2020/12/10 02:36:34;;;;;;;22.97;14.07;;;;;;;-1.94;84.70;94640.41;5097158;28;20182;-76
2020/12/10 02:39:00;;;;;;;26.23;15.17;;;;;;;-1.90;85.32;94639.28;5113871;28;20598;-76
2020/12/10 02:41:26;;;;;;;24.97;14.53;;;;;;;-1.90;84.68;94641.03;5114422;28;20189;-76
2020/12/10 02:43:51;;;;;;;20.53;13.13;;;;;;;-1.87;85.17;94631.47;5099283;28;20545;-76
2020/12/10 02:46:17;;;;;;;23.87;13.90;;;;;;;-1.84;85.08;94636.38;5080487;28;20189;-76
2020/12/10 02:48:44;;;;;;;24.57;15.23;;;;;;;-1.85;84.78;94633.94;5115218;28;20166;-76
2020/12/10 02:51:09;;;;;;;26.83;15.67;;;;;;;-1.81;84.52;94625.19;5097595;28;20178;-76
2020/12/10 02:53:35;;;;;;;26.00;16.40;;;;;;;-1.84;84.48;94633.03;5094042;28;20214;-76
2020/12/10 02:56:01;;;;;;;23.97;14.30;;;;;;;-1.83;84.33;94629.56;5097044;28;20174;-76
2020/12/10 02:58:26;;;;;;;21.90;13.40;;;;;;;-1.86;84.69;94622.91;5097131;28;20211;-76
2020/12/10 03:00:52;;;;;;;27.07;14.33;;;;;;;-1.85;84.30;94616.13;5096661;28;20186;-76
2020/12/10 03:03:17;;;;;;;24.80;14.23;;;;;;;-1.85;84.03;94618.66;5097494;28;20201;-76
2020/12/10 03:05:43;;;;;;;22.23;13.40;;;;;;;-1.84;84.31;94610.13;5079220;28;20658;-76
2020/12/10 03:08:09;;;;;;;22.53;12.60;;;;;;;-1.86;84.41;94611.91;5097073;28;20232;-77
2020/12/10 03:10:34;;;;;;;24.10;13.10;;;;;;;-1.85;84.51;94604.22;5096586;28;20203;-76
2020/12/10 03:13:00;;;;;;;24.97;14.43;;;;;;;-1.82;84.21;94601.47;5079963;28;20206;-76
2020/12/10 03:15:25;;;;;;;23.77;13.27;;;;;;;-1.83;84.23;94604.09;5080974;28;20195;-76
2020/12/10 03:17:50;;;;;;;23.37;12.87;;;;;;;-1.82;84.40;94600.66;5096737;28;20263;-76
2020/12/10 03:20:16;;;;;;;23.37;13.57;;;;;;;-1.81;84.37;94600.56;5114434;28;20631;-76
2020/12/10 03:22:42;;;;;;;24.90;14.57;;;;;;;-1.77;84.75;94596.06;5096770;28;20190;-76
2020/12/10 03:25:07;;;;;;;24.87;14.77;;;;;;;-1.76;84.39;94598.53;5093876;28;20191;-76
2020/12/10 03:27:33;;;;;;;20.73;13.33;;;;;;;-1.74;84.73;94590.81;5114524;28;20195;-76
2020/12/10 03:29:58;;;;;;;23.23;14.20;;;;;;;-1.73;84.55;94583.06;5114056;28;20190;-76
2020/12/10 03:32:23;;;;;;;24.73;13.77;;;;;;;-1.69;84.32;94577.78;5096446;28;20186;-76
2020/12/10 03:34:49;;;;;;;21.67;12.47;;;;;;;-1.74;83.97;94578.06;5113557;28;20524;-76
2020/12/10 03:37:14;;;;;;;22.17;12.80;;;;;;;-1.75;83.81;94576.44;5108952;27;20235;-76
2020/12/10 03:39:39;;;;;;;18.40;11.47;;;;;;;-1.80;83.49;94578.47;5114250;28;20236;-76
2020/12/10 03:42:05;;;;;;;20.27;11.93;;;;;;;-1.79;83.73;94568.19;5096522;28;20190;-76
2020/12/10 03:44:30;;;;;;;20.03;12.80;;;;;;;-1.76;84.14;94572.28;5113320;28;20666;-76
2020/12/10 03:46:55;;;;;;;20.50;12.77;;;;;;;-1.74;83.85;94562.81;5106123;28;20598;-76
2020/12/10 03:49:21;;;;;;;20.30;11.93;;;;;;;-1.71;83.87;94555.78;5076786;28;20175;-76
2020/12/10 03:51:46;;;;;;;24.00;12.60;;;;;;;-1.69;83.82;94557.41;5096140;28;20187;-76
2020/12/10 03:54:12;;;;;;;22.40;13.03;;;;;;;-1.69;83.94;94558.22;5114268;28;20195;-76
2020/12/10 03:56:37;;;;;;;20.87;13.47;;;;;;;-1.67;84.03;94556.41;5113248;28;20729;-76
2020/12/10 03:59:03;;;;;;;22.53;13.77;;;;;;;-1.68;83.97;94557.31;5095131;28;20218;-76
2020/12/10 04:01:29;;;;;;;24.57;13.80;;;;;;;-1.76;83.84;94552.72;5097043;28;20713;-76
2020/12/10 04:03:55;;;;;;;25.87;14.77;;;;;;;-1.72;83.93;94550.78;5078666;28;20296;-76
2020/12/10 04:06:20;;;;;;;24.17;14.50;;;;;;;-1.69;83.72;94549.78;5095999;28;20210;-76
2020/12/10 04:08:45;;;;;;;19.67;12.33;;;;;;;-1.70;83.56;94548.97;5093189;28;20602;-76
2020/12/10 04:11:11;;;;;;;19.83;12.37;;;;;;;-1.74;83.18;94540.72;5103281;28;20206;-76
2020/12/10 04:13:36;;;;;;;21.50;13.30;;;;;;;-1.75;83.54;94545.91;5095348;28;20199;-76
2020/12/10 04:16:03;;;;;;;22.23;11.80;;;;;;;-1.79;83.16;94544.47;5095819;28;20184;-76
2020/12/10 04:18:29;;;;;;;21.37;12.40;;;;;;;-1.82;83.21;94544.66;5093405;28;20206;-76
2020/12/10 04:20:54;;;;;;;19.70;12.47;;;;;;;-1.80;83.70;94541.09;5094094;28;20513;-76
2020/12/10 04:23:20;;;;;;;19.60;12.03;;;;;;;-1.79;83.56;94536.81;5078689;28;20237;-76
2020/12/10 04:25:50;;;;;;;22.60;12.53;;;;;;;-1.79;83.49;94541.91;5112362;28;20232;-76
2020/12/10 04:28:15;;;;;;;17.50;11.53;;;;;;;-1.82;83.64;94537.03;5112292;28;20215;-76
2020/12/10 04:30:40;;;;;;;21.53;12.67;;;;;;;-1.81;83.35;94536.91;5099868;28;20186;-76
2020/12/10 04:33:06;;;;;;;21.57;11.80;;;;;;;-1.78;83.70;94536.72;5094710;28;20203;-76
2020/12/10 04:35:31;;;;;;;19.87;12.13;;;;;;;-1.79;83.70;94532.53;5094899;28;20673;-76
2020/12/10 04:37:56;;;;;;;23.73;14.03;;;;;;;-1.80;83.46;94530.09;5113633;28;20691;-76
2020/12/10 04:40:22;;;;;;;24.17;13.43;;;;;;;-1.79;83.82;94529.19;5104732;28;20191;-76
2020/12/10 04:42:48;;;;;;;20.67;12.93;;;;;;;-1.79;83.35;94521.56;5094076;28;20256;-76
2020/12/10 04:45:13;;;;;;;21.13;12.53;;;;;;;-1.76;83.69;94521.38;5111983;28;20298;-76
2020/12/10 04:47:38;;;;;;;22.67;12.60;;;;;;;-1.77;83.83;94517.16;5111885;28;20345;-76
2020/12/10 04:50:14;;;;;;;19.87;11.37;;;;;;;-1.71;84.07;94519.34;5111884;28;20263;-76
2020/12/10 04:52:40;;;;;;;20.97;12.33;;;;;;;-1.76;84.02;94521.38;5094978;28;20629;-76
2020/12/10 04:55:05;;;;;;;18.50;11.63;;;;;;;-1.74;83.88;94524.63;5113004;28;20184;-76
2020/12/10 04:57:31;;;;;;;21.33;12.30;;;;;;;-1.75;84.77;94517.91;5094641;28;20177;-76
2020/12/10 04:59:57;;;;;;;20.77;11.87;;;;;;;-1.79;84.15;94514.72;5094591;28;20264;-76
2020/12/10 05:02:22;;;;;;;21.97;12.10;;;;;;;-1.84;84.78;94510.88;5098766;28;20187;-76
2020/12/10 05:04:47;;;;;;;21.33;12.77;;;;;;;-1.88;84.73;94512.78;5094783;28;20198;-76
2020/12/10 05:07:13;;;;;;;20.40;12.40;;;;;;;-1.84;84.54;94518.50;5094680;28;20821;-76
2020/12/10 05:09:38;;;;;;;20.47;12.17;;;;;;;-1.85;85.70;94512.59;5094487;28;20211;-76
2020/12/10 05:12:16;;;;;;;23.37;13.63;;;;;;;-1.86;85.12;94505.84;5090634;28;20666;-76
2020/12/10 05:14:46;;;;;;;22.27;13.20;;;;;;;-1.82;85.14;94504.75;5094309;28;20331;-76
2020/12/10 05:17:15;;;;;;;22.70;12.77;;;;;;;-1.76;85.05;94506.09;5077363;28;20274;-76
2020/12/10 05:19:40;;;;;;;20.27;11.33;;;;;;;-1.81;83.57;94500.47;5094174;28;20712;-76
2020/12/10 05:22:07;;;;;;;26.60;15.27;;;;;;;-1.80;84.04;94499.56;5094624;28;20209;-76
2020/12/10 05:24:33;;;;;;;21.23;12.40;;;;;;;-1.84;84.11;94498.16;5108405;28;20286;-76
2020/12/10 05:27:20;;;;;;;23.80;14.87;;;;;;;-1.86;84.29;94492.31;5094226;28;20201;-76
2020/12/10 05:29:47;;;;;;;22.93;12.97;;;;;;;-1.83;84.16;94489.59;5112554;28;20195;-76
2020/12/10 05:32:34;;;;;;;18.03;11.43;;;;;;;-1.85;83.71;94493.97;5111541;28;20171;-76
2020/12/10 05:35:15;;;;;;;22.40;12.23;;;;;;;-1.88;83.05;94486.50;5107409;27;20675;-75
2020/12/10 05:37:41;;;;;;;19.07;10.47;;;;;;;-1.89;82.97;94489.97;5092072;28;20261;-75
2020/12/10 05:40:07;;;;;;;18.40;11.37;;;;;;;-1.88;83.13;94482.25;5077105;28;20293;-76
2020/12/10 05:42:37;;;;;;;21.00;11.93;;;;;;;-1.77;82.41;94486.63;5093672;28;20181;-75
2020/12/10 05:45:29;;;;;;;21.17;12.03;;;;;;;-1.82;83.22;94496.31;5110965;28;20207;-75
2020/12/10 05:47:56;;;;;;;20.03;11.87;;;;;;;-1.77;82.88;94494.25;5093588;28;20191;-76
2020/12/10 05:50:26;;;;;;;19.53;11.27;;;;;;;-1.69;83.50;94496.31;5108734;28;20175;-76
2020/12/10 05:53:10;;;;;;;20.40;12.87;;;;;;;-1.76;83.52;94495.91;5110839;28;20278;-75
2020/12/10 05:55:45;;;;;;;23.43;13.20;;;;;;;-1.75;83.56;94500.09;5112238;28;20179;-76
2020/12/10 05:58:10;;;;;;;21.33;12.13;;;;;;;-1.67;83.42;94497.88;5106834;28;20305;-75
2020/12/10 06:00:37;;;;;;;22.13;13.50;;;;;;;-1.81;84.28;94491.13;5111987;28;20254;-76
2020/12/10 06:03:04;;;;;;;24.50;14.10;;;;;;;-1.85;84.59;94499.06;5076945;28;20286;-75
2020/12/10 06:05:29;;;;;;;24.37;14.00;;;;;;;-1.85;84.86;94501.59;5093424;28;20174;-75
2020/12/10 06:08:03;;;;;;;24.17;14.17;;;;;;;-1.71;84.27;94499.78;5092472;28;20719;-75
2020/12/10 06:10:31;;;;;;;23.13;13.87;;;;;;;-1.78;84.28;94497.72;5093366;28;20270;-75
2020/12/10 06:12:58;;;;;;;27.17;14.67;;;;;;;-1.86;84.45;94508.41;5111551;28;20196;-75
2020/12/10 06:15:25;;;;;;;26.03;15.37;;;;;;;-1.86;85.15;94510.13;5077049;28;20174;-75
2020/12/10 06:18:10;;;;;;;26.00;15.77;;;;;;;-1.86;84.56;94516.03;5073412;28;20229;-75
2020/12/10 06:20:46;;;;;;;25.00;15.23;;;;;;;-1.74;84.13;94510.16;5111616;28;20198;-75
2020/12/10 06:23:27;;;;;;;25.13;14.87;;;;;;;-1.82;84.25;94499.66;5093502;28;20190;-76
2020/12/10 06:25:54;;;;;;;26.30;14.87;;;;;;;-1.84;84.80;94500.69;5111760;28;20650;-76
2020/12/10 06:28:21;;;;;;;26.93;16.50;;;;;;;-1.84;84.61;94505.78;5089945;28;20670;-75
2020/12/10 06:31:05;;;;;;;25.23;15.17;;;;;;;-1.80;84.24;94502.09;5092958;28;20200;-75
2020/12/10 06:33:46;;;;;;;23.73;14.33;;;;;;;-1.77;83.63;94501.91;5093198;28;20201;-76
2020/12/10 06:36:19;;;;;;;26.90;15.47;;;;;;;-1.89;84.06;94502.69;5093801;28;20173;-76
2020/12/10 06:38:44;;;;;;;28.50;15.53;;;;;;;-1.93;84.40;94508.91;5107382;28;20700;-76
2020/12/10 06:41:10;;;;;;;23.13;14.13;;;;;;;-1.91;84.51;94502.81;5092183;28;20182;-76
2020/12/10 06:43:36;;;;;;;25.87;13.97;;;;;;;-1.86;84.16;94505.03;5073358;28;20200;-76
2020/12/10 06:46:02;;;;;;;27.37;14.57;;;;;;;-1.89;84.01;94500.97;5072653;28;20176;-76
2020/12/10 06:48:38;;;;;;;22.33;14.10;;;;;;;-1.89;84.12;94511.16;5073057;28;20187;-76
2020/12/10 06:51:14;;;;;;;21.20;12.80;;;;;;;-1.93;84.04;94503.81;5089858;28;20183;-76
2020/12/10 06:53:39;;;;;;;21.60;13.20;;;;;;;-1.86;83.96;94499.94;5094674;28;20198;-76
2020/12/10 06:56:08;;;;;;;23.87;14.70;;;;;;;-1.87;83.65;94498.31;5092900;28;20232;-76
2020/12/10 06:58:37;;;;;;;21.33;12.87;;;;;;;-1.89;84.32;94495.88;5111455;28;20231;-76
2020/12/10 07:01:37;;;;;;;21.27;13.27;;;;;;;-1.78;83.15;94497.72;5107874;28;20540;-75
2020/12/10 07:07:16;;;;;;;17.30;11.03;;;;;;;-1.77;82.25;94497.66;5113121;28;20175;-76
2020/12/10 07:09:57;;;;;;;20.73;12.00;;;;;;;-1.75;81.92;94489.91;5096803;28;20705;-76
2020/12/10 07:12:25;;;;;;;18.50;11.57;;;;;;;-1.80;82.49;94495.28;5078555;28;20187;-76
2020/12/10 07:14:51;;;;;;;15.43;10.50;;;;;;;-1.84;80.89;94490.50;5103164;28;20236;-76
2020/12/10 07:17:17;;;;;;;18.13;12.20;;;;;;;-1.80;81.08;94497.81;5096742;28;20516;-76
2020/12/10 07:19:42;;;;;;;19.13;12.07;;;;;;;-1.93;82.18;94493.66;5113606;28;20248;-76
2020/12/10 07:22:08;;;;;;;17.33;10.60;;;;;;;-1.91;82.24;94486.72;5106436;28;20203;-76
2020/12/10 07:24:33;;;;;;;17.70;11.63;;;;;;;-1.85;82.57;94493.97;5114275;28;20194;-76
2020/12/10 07:26:58;;;;;;;18.97;11.87;;;;;;;-1.92;81.55;94497.81;5114581;28;20258;-76
2020/12/10 07:29:24;;;;;;;19.83;12.07;;;;;;;-1.88;82.67;94501.78;5096608;28;20270;-76
2020/12/10 07:31:49;;;;;;;18.37;12.53;;;;;;;-1.88;82.38;94496.69;5113650;28;20174;-76
2020/12/10 07:34:15;;;;;;;19.57;11.80;;;;;;;-1.83;82.17;94499.78;5092573;28;20224;-76
2020/12/10 07:36:54;;;;;;;19.13;12.40;;;;;;;-1.81;82.21;94501.28;5114660;28;20641;-76
2020/12/10 07:39:28;;;;;;;18.43;12.00;;;;;;;-1.82;82.27;94502.22;5095535;28;20210;-76
2020/12/10 07:41:53;;;;;;;19.27;12.37;;;;;;;-1.78;82.52;94497.72;5114499;28;20175;-76
2020/12/10 07:44:32;;;;;;;19.27;12.37;;;;;;;-1.72;82.23;94492.25;5110368;28;20208;-76
2020/12/10 07:46:58;;;;;;;17.97;11.20;;;;;;;-1.70;81.90;94500.59;5096188;28;20666;-76
2020/12/10 07:49:25;;;;;;;19.67;12.47;;;;;;;-1.73;82.75;94499.06;5112703;28;20171;-76
2020/12/10 07:51:50;;;;;;;19.17;12.57;;;;;;;-1.70;82.31;94500.59;5114609;28;20256;-76
2020/12/10 07:54:16;;;;;;;21.67;12.83;;;;;;;-1.67;82.10;94504.69;5100858;28;20679;-76
2020/12/10 07:56:42;;;;;;;20.40;12.47;;;;;;;-1.64;82.13;94494.31;5096503;28;20582;-76
2020/12/10 07:59:14;;;;;;;19.20;11.97;;;;;;;-1.75;81.66;94495.00;5095326;28;20204;-76
2020/12/10 08:02:00;;;;;;;21.33;12.60;;;;;;;-1.73;81.95;94491.44;5113192;28;20179;-76
2020/12/10 08:04:26;;;;;;;23.10;13.23;;;;;;;-1.64;81.30;94495.13;5107737;28;20247;-76
2020/12/10 08:06:52;;;;;;;19.73;13.30;;;;;;;-1.71;81.77;94493.88;5095927;28;20179;-76
2020/12/10 08:09:18;;;;;;;20.57;12.50;;;;;;;-1.72;81.58;94492.25;5095548;28;20171;-75
2020/12/10 08:11:52;;;;;;;20.97;12.43;;;;;;;-1.72;82.39;94487.97;5112949;28;20175;-76
2020/12/10 08:14:29;;;;;;;19.70;11.60;;;;;;;-1.59;81.85;94494.78;5129889;27;20291;-76
2020/12/10 08:16:55;;;;;;;19.33;12.00;;;;;;;-1.49;81.11;94494.13;5092665;28;20182;-76
2020/12/10 08:19:26;;;;;;;18.07;12.13;;;;;;;-1.53;81.47;94497.75;5078405;28;20203;-76
2020/12/10 08:21:51;;;;;;;18.77;12.40;;;;;;;-1.45;81.29;94499.81;5112061;28;20189;-76
2020/12/10 08:24:40;;;;;;;18.13;12.27;;;;;;;-1.50;81.76;94506.97;5112604;28;20203;-76
2020/12/10 08:27:06;;;;;;;17.83;11.63;;;;;;;-1.58;81.66;94504.91;5096285;28;20179;-75
2020/12/10 08:29:32;;;;;;;22.93;14.63;;;;;;;-1.49;81.31;94509.41;5102943;28;20195;-76
2020/12/10 08:32:08;;;;;;;24.23;15.93;;;;;;;-1.44;81.24;94504.81;5095497;28;20186;-76
2020/12/10 08:34:33;;;;;;;23.80;15.03;;;;;;;-1.44;81.81;94502.25;5112377;28;20199;-76
2020/12/10 08:37:06;;;;;;;19.83;13.07;;;;;;;-1.44;81.72;94506.53;5099399;28;20720;-75
2020/12/10 08:39:33;;;;;;;17.63;11.63;;;;;;;-1.35;81.50;94507.66;5093871;28;20202;-76
2020/12/10 08:41:58;;;;;;;16.33;11.17;;;;;;;-1.30;81.11;94505.63;5112047;28;20179;-76
2020/12/10 08:44:24;;;;;;;19.73;12.20;;;;;;;-1.38;81.47;94497.69;5112258;28;20287;-76
2020/12/10 08:46:59;;;;;;;16.73;10.97;;;;;;;-1.24;81.13;94510.31;5110350;28;20273;-76
2020/12/10 08:49:24;;;;;;;17.47;11.10;;;;;;;-1.23;81.28;94504.31;5084548;28;20178;-76
2020/12/10 08:51:50;;;;;;;16.40;10.50;;;;;;;-1.18;80.80;94504.81;5113322;28;20186;-76
2020/12/10 08:54:16;;;;;;;15.60;10.93;;;;;;;-1.25;80.45;94493.38;5111591;28;20199;-75
2020/12/10 08:56:41;;;;;;;17.37;11.63;;;;;;;-1.29;81.06;94492.78;5112081;28;20296;-76
2020/12/10 08:59:07;;;;;;;18.23;12.10;;;;;;;-1.34;81.47;94488.91;5108830;28;20236;-76
2020/12/10 09:01:33;;;;;;;18.77;12.40;;;;;;;-1.25;81.17;94493.38;5094770;28;20327;-76
2020/12/10 09:03:59;;;;;;;20.10;13.40;;;;;;;-1.22;81.49;94498.31;5077923;28;20202;-76
2020/12/10 09:06:37;;;;;;;16.97;12.60;;;;;;;-1.12;81.22;94496.75;5094231;28;20595;-76
2020/12/10 09:09:05;;;;;;;20.70;12.77;;;;;;;-1.22;81.37;94505.94;5093597;28;20202;-76
2020/12/10 09:11:31;;;;;;;20.17;13.10;;;;;;;-1.14;81.35;94508.81;5098417;28;20191;-76
2020/12/10 09:13:59;;;;;;;20.13;12.60;;;;;;;-1.19;81.39;94500.63;5077505;28;20293;-76
2020/12/10 09:16:25;;;;;;;21.37;12.93;;;;;;;-1.09;80.53;94505.94;5094868;28;20174;-76
2020/12/10 09:18:51;;;;;;;19.80;13.67;;;;;;;-1.16;81.28;94502.97;5092070;28;20207;-75
2020/12/10 09:21:16;;;;;;;18.17;12.13;;;;;;;-1.12;80.90;94501.03;5093579;28;20575;-76
2020/12/10 09:23:44;;;;;;;19.87;12.97;;;;;;;-1.03;80.89;94501.25;5112868;28;20210;-76
2020/12/10 09:26:11;;;;;;;20.17;13.77;;;;;;;-1.07;81.32;94504.91;5112930;28;20179;-76
2020/12/10 09:28:37;;;;;;;21.53;13.50;;;;;;;-1.10;81.30;94496.66;5093957;28;20192;-76
2020/12/10 09:31:02;;;;;;;22.33;13.97;;;;;;;-1.07;81.24;94499.81;5079746;28;20191;-77
2020/12/10 09:33:28;;;;;;;20.53;12.83;;;;;;;-1.00;81.63;94501.03;5094274;28;20206;-76
2020/12/10 09:35:53;;;;;;;20.53;13.03;;;;;;;-0.93;81.21;94496.34;5093987;28;20260;-76
2020/12/10 09:38:18;;;;;;;24.93;15.77;;;;;;;-0.97;81.30;94505.09;5094018;28;20203;-76
2020/12/10 09:40:43;;;;;;;28.13;16.40;;;;;;;-1.06;81.88;94504.00;5092636;28;20230;-76
2020/12/10 09:43:09;;;;;;;29.37;16.27;;;;;;;-1.00;81.97;94500.22;5076889;28;20199;-76
2020/12/10 09:45:34;;;;;;;29.60;16.77;;;;;;;-1.01;81.85;94504.50;5077115;28;20179;-76
2020/12/10 09:48:01;;;;;;;29.00;16.20;;;;;;;-1.04;82.25;94499.63;5112382;28;20176;-76
2020/12/10 09:50:29;;;;;;;33.73;17.43;;;;;;;-1.08;81.99;94497.38;5094034;28;20258;-76
2020/12/10 09:55:49;;;;;;;29.90;16.57;;;;;;;-1.00;81.99;94484.91;5096544;28;20178;-76
2020/12/10 09:58:15;;;;;;;29.83;18.60;;;;;;;-1.09;81.91;94483.00;5111866;28;20213;-74
2020/12/10 10:00:40;;;;;;;29.93;18.50;;;;;;;-1.00;81.89;94484.91;5093613;28;20183;-74
2020/12/10 10:03:06;;;;;;;30.53;17.70;;;;;;;-0.89;81.00;94480.72;5085786;28;20203;-73
2020/12/10 10:05:33;;;;;;;28.63;18.00;;;;;;;-1.01;81.84;94480.75;5093952;28;20236;-76
2020/12/10 10:07:58;;;;;;;26.50;15.83;;;;;;;-1.00;81.73;94480.63;5093741;28;20179;-76
2020/12/10 10:10:24;;;;;;;25.03;14.20;;;;;;;-0.92;81.53;94475.03;5093707;28;20259;-77
2020/12/10 10:12:50;;;;;;;24.83;15.63;;;;;;;-0.87;81.49;94467.88;5073043;28;20230;-77
2020/12/10 10:15:16;;;;;;;25.67;14.87;;;;;;;-0.94;81.21;94470.03;5096369;28;20187;-77
2020/12/10 10:17:41;;;;;;;22.57;14.60;;;;;;;-0.80;80.97;94479.28;5110493;28;20597;-77
2020/12/10 10:20:07;;;;;;;20.87;12.83;;;;;;;-0.73;80.72;94477.13;5111770;28;20207;-76
2020/12/10 10:22:32;;;;;;;19.63;11.90;;;;;;;-0.70;79.95;94474.38;5110715;28;20186;-77
2020/12/10 10:24:58;;;;;;;20.03;12.00;;;;;;;-0.64;79.15;94472.19;5091311;28;20211;-77
2020/12/10 10:27:24;;;;;;;15.30;9.37;;;;;;;-0.59;78.37;94469.34;5076704;28;20240;-76
2020/12/10 10:29:49;;;;;;;17.97;10.93;;;;;;;-0.69;79.39;94483.66;5093145;28;20198;-77
2020/12/10 10:32:14;;;;;;;17.13;10.77;;;;;;;-0.71;79.66;94470.19;5110616;28;20191;-73
2020/12/10 10:34:39;;;;;;;15.90;10.20;;;;;;;-0.61;79.44;94482.22;5103714;28;20232;-75
2020/12/10 10:37:05;;;;;;;14.03;9.20;;;;;;;-0.69;79.59;94478.56;5097913;28;20198;-76
2020/12/10 10:39:30;;;;;;;16.30;9.93;;;;;;;-0.64;79.60;94476.47;5087368;28;20215;-76
2020/12/10 10:41:55;;;;;;;15.70;10.33;;;;;;;-0.57;79.46;94475.97;5097358;28;20184;-77
2020/12/10 10:44:21;;;;;;;14.03;9.23;;;;;;;-0.65;79.67;94475.69;5080724;28;20202;-77
2020/12/10 10:46:47;;;;;;;15.57;10.23;;;;;;;-0.54;79.53;94474.09;5097467;28;20178;-78
2020/12/10 10:49:15;;;;;;;15.47;9.27;;;;;;;-0.63;78.97;94473.00;5080392;28;20177;-77
2020/12/10 10:51:41;;;;;;;12.03;8.27;;;;;;;-0.55;78.33;94477.59;5093546;28;20647;-77
2020/12/10 10:54:06;;;;;;;15.63;9.73;;;;;;;-0.64;78.64;94472.19;5110008;28;20207;-77
2020/12/10 10:56:31;;;;;;;14.80;9.63;;;;;;;-0.61;79.08;94466.09;5115407;28;20178;-77
2020/12/10 10:58:57;;;;;;;14.63;10.00;;;;;;;-0.70;79.37;94471.84;5114168;28;20199;-77
2020/12/10 11:01:27;;;;;;;12.07;9.13;;;;;;;-0.71;79.04;94476.09;5088102;28;20202;-76
2020/12/10 11:03:52;;;;;;;11.60;8.10;;;;;;;-0.51;77.55;94477.28;5099400;28;20198;-77
2020/12/10 11:06:18;;;;;;;13.03;8.87;;;;;;;-0.70;78.14;94474.38;5113864;28;20236;-76
2020/12/10 11:08:43;;;;;;;12.10;8.60;;;;;;;-0.69;78.82;94481.09;5114041;28;20170;-76
2020/12/10 11:11:08;;;;;;;14.40;8.97;;;;;;;-0.59;78.47;94469.34;5113198;28;20551;-77
2020/12/10 11:13:34;;;;;;;12.17;8.10;;;;;;;-0.59;78.10;94469.34;5113514;28;20203;-77
2020/12/10 11:15:59;;;;;;;12.70;8.73;;;;;;;-0.62;77.66;94472.09;5115404;28;20179;-76
2020/12/10 11:18:24;;;;;;;14.87;8.67;;;;;;;-0.56;77.65;94466.56;5096417;28;20226;-77
2020/12/10 11:20:50;;;;;;;12.73;8.73;;;;;;;-0.63;77.09;94463.63;5114804;28;20182;-76
2020/12/10 11:23:15;;;;;;;14.97;9.97;;;;;;;-0.64;77.22;94461.19;5109860;28;20234;-76